createdAt,value
2022-10-25T00:01:19.517Z,1.00
2022-10-25T00:03:47.255Z,0.97
2022-10-25T00:06:15.149Z,0.93
2022-10-25T00:08:42.934Z,0.77
2022-10-25T00:11:17.008Z,1.03
2022-10-25T00:13:45.969Z,1.00
2022-10-25T00:16:15.654Z,0.90
2022-10-25T00:18:43.342Z,1.00
2022-10-25T00:21:11.134Z,1.10
2022-10-25T00:23:38.748Z,1.10
2022-10-25T00:26:09.350Z,1.30
2022-10-25T00:28:37.211Z,1.00
2022-10-25T00:31:08.522Z,1.00
2022-10-25T00:33:37.936Z,1.00
2022-10-25T00:36:06.535Z,1.10
2022-10-25T00:38:34.161Z,1.03
2022-10-25T00:41:02.593Z,1.03
2022-10-25T00:43:38.534Z,1.03
2022-10-25T00:46:13.654Z,0.90
2022-10-25T00:48:44.324Z,1.03
2022-10-25T00:51:12.031Z,1.13
2022-10-25T00:53:39.725Z,1.00
2022-10-25T00:56:14.375Z,0.80
2022-10-25T00:58:45.274Z,0.87
2022-10-25T01:01:15.913Z,0.80
2022-10-25T01:03:46.291Z,0.70
2022-10-25T01:06:21.543Z,1.40
2022-10-25T01:08:50.998Z,0.83
2022-10-25T01:11:18.788Z,0.97
2022-10-25T01:13:46.814Z,0.60
2022-10-25T01:16:24.741Z,0.90
2022-10-25T01:19:00.085Z,0.80
2022-10-25T01:21:45.344Z,1.20
2022-10-25T01:24:45.729Z,0.97
2022-10-25T01:27:31.159Z,1.07
2022-10-25T01:30:08.138Z,1.33
2022-10-25T01:33:06.913Z,0.97
2022-10-25T01:35:44.291Z,0.97
2022-10-25T01:38:38.507Z,1.00
2022-10-25T01:41:16.387Z,0.80
2022-10-25T01:43:56.467Z,0.70
2022-10-25T01:46:30.171Z,0.83
2022-10-25T01:49:04.622Z,0.80
2022-10-25T01:51:32.537Z,0.70
2022-10-25T01:54:00.426Z,0.93
2022-10-25T01:56:33.538Z,0.90
2022-10-25T01:59:26.871Z,0.97
2022-10-25T02:02:08.882Z,0.80
2022-10-25T02:04:48.532Z,0.80
2022-10-25T02:07:24.383Z,0.70
2022-10-25T02:10:00.503Z,0.70
2022-10-25T02:12:32.686Z,0.80
2022-10-25T02:15:09.639Z,0.70
2022-10-25T02:17:41.948Z,0.80
2022-10-25T02:20:14.513Z,0.70
2022-10-25T02:22:42.543Z,0.90
2022-10-25T02:25:11.073Z,0.67
2022-10-25T02:27:40.839Z,0.87
2022-10-25T02:30:09.475Z,0.60
2022-10-25T02:32:37.632Z,0.63
2022-10-25T02:35:06.165Z,0.77
2022-10-25T02:37:35.141Z,0.73
2022-10-25T02:40:02.822Z,0.77
2022-10-25T02:42:30.421Z,0.70
2022-10-25T02:44:57.950Z,0.53
2022-10-25T02:47:25.909Z,0.70
2022-10-25T02:49:53.522Z,0.83
2022-10-25T02:52:21.080Z,0.70
2022-10-25T02:54:50.001Z,0.63
2022-10-25T02:57:17.604Z,0.60
2022-10-25T02:59:45.151Z,0.70
2022-10-25T03:02:12.762Z,0.87
2022-10-25T03:04:40.329Z,0.80
2022-10-25T03:07:08.045Z,0.80
2022-10-25T03:09:35.644Z,0.70
2022-10-25T03:12:05.047Z,0.70
2022-10-25T03:14:32.681Z,0.80
2022-10-25T03:17:00.268Z,0.60
2022-10-25T03:19:27.850Z,0.73
2022-10-25T03:21:55.473Z,0.70
2022-10-25T03:24:23.032Z,0.90
2022-10-25T03:26:50.652Z,0.70
2022-10-25T03:29:19.781Z,0.67
2022-10-25T03:31:47.755Z,0.80
2022-10-25T03:34:15.310Z,0.80
2022-10-25T03:36:42.914Z,0.80
2022-10-25T03:39:11.254Z,0.70
2022-10-25T03:41:38.839Z,1.03
2022-10-25T03:44:06.497Z,0.60
2022-10-25T03:46:35.585Z,0.80
2022-10-25T03:49:03.183Z,0.83
2022-10-25T03:51:30.786Z,0.70
2022-10-25T03:53:58.364Z,0.80
2022-10-25T03:56:25.950Z,0.90
2022-10-25T03:58:54.183Z,0.67
2022-10-25T04:01:22.113Z,0.80
2022-10-25T04:03:51.105Z,0.60
2022-10-25T04:06:18.653Z,0.60
2022-10-25T04:08:46.318Z,0.70
2022-10-25T04:11:13.936Z,0.60
2022-10-25T04:13:41.527Z,0.60
2022-10-25T04:16:09.746Z,0.60
2022-10-25T04:18:37.621Z,0.60
2022-10-25T04:21:06.883Z,0.90
2022-10-25T04:23:34.486Z,0.63
2022-10-25T04:26:02.045Z,0.50
2022-10-25T04:28:29.617Z,0.80
2022-10-25T04:30:57.168Z,0.50
2022-10-25T04:33:24.870Z,0.70
2022-10-25T04:35:56.938Z,0.70
2022-10-25T04:38:26.233Z,0.60
2022-10-25T04:40:55.157Z,0.73
2022-10-25T04:43:22.923Z,0.70
2022-10-25T04:45:50.507Z,0.87
2022-10-25T04:48:18.568Z,0.77
2022-10-25T04:50:46.679Z,0.87
2022-10-25T04:53:14.278Z,0.50
2022-10-25T04:55:43.202Z,0.97
2022-10-25T04:58:11.030Z,0.57
2022-10-25T05:00:38.636Z,0.70
2022-10-25T05:03:10.781Z,0.70
2022-10-25T05:05:41.135Z,0.67
2022-10-25T05:08:08.703Z,0.70
2022-10-25T05:10:39.182Z,1.07
2022-10-25T05:13:08.204Z,1.00
2022-10-25T05:15:35.769Z,1.10
2022-10-25T05:18:03.363Z,1.00
2022-10-25T05:20:30.874Z,1.07
2022-10-25T05:22:58.469Z,0.90
2022-10-25T05:25:26.117Z,1.10
2022-10-25T05:27:53.645Z,0.87
2022-10-25T05:30:22.602Z,1.23
2022-10-25T05:32:50.800Z,1.27
2022-10-25T05:35:18.362Z,0.90
2022-10-25T05:37:45.965Z,0.97
2022-10-25T05:40:13.803Z,1.00
2022-10-25T05:42:41.374Z,1.10
2022-10-25T05:45:09.665Z,2.07
2022-10-25T05:47:38.622Z,1.10
2022-10-25T05:50:06.984Z,1.30
2022-10-25T05:52:34.567Z,1.53
2022-10-25T05:55:02.511Z,1.37
2022-10-25T05:57:30.775Z,1.27
2022-10-25T05:59:58.338Z,1.43
2022-10-25T06:02:25.997Z,1.57
2022-10-25T06:04:54.931Z,1.10
2022-10-25T06:07:22.564Z,1.20
2022-10-25T06:09:50.184Z,1.50
2022-10-25T06:12:17.807Z,1.13
2022-10-25T06:14:45.390Z,1.37
2022-10-25T06:17:13.655Z,1.10
2022-10-25T06:19:41.200Z,1.40
2022-10-25T06:22:10.184Z,1.33
2022-10-25T06:24:37.803Z,1.10
2022-10-25T06:27:05.607Z,1.07
2022-10-25T06:29:33.563Z,1.30
2022-10-25T06:32:01.164Z,1.37
2022-10-25T06:34:28.810Z,1.30
2022-10-25T06:36:56.729Z,0.97
2022-10-25T06:39:25.633Z,1.10
2022-10-25T06:41:53.336Z,1.20
2022-10-25T06:44:20.919Z,1.60
2022-10-25T06:49:35.975Z,0.77
2022-10-25T06:52:03.591Z,1.10
2022-10-25T06:54:32.566Z,1.00
2022-10-25T06:57:00.161Z,0.90
2022-10-25T06:59:27.855Z,1.03
2022-10-25T07:01:57.230Z,1.00
2022-10-25T07:04:25.038Z,1.10
2022-10-25T07:06:55.191Z,1.33
2022-10-25T07:09:23.291Z,1.20
2022-10-25T07:11:52.447Z,1.10
2022-10-25T07:14:20.013Z,1.13
2022-10-25T07:16:47.570Z,1.20
2022-10-25T07:19:15.130Z,1.07
2022-10-25T07:21:42.696Z,1.00
2022-10-25T07:24:11.653Z,1.40
2022-10-25T07:26:40.342Z,9.20
2022-10-25T07:29:09.508Z,5.70
2022-10-25T07:31:41.164Z,3.77
2022-10-25T07:34:08.841Z,2.33
2022-10-25T07:36:36.422Z,1.73
2022-10-25T07:39:04.238Z,2.70
2022-10-25T07:41:31.778Z,2.10
2022-10-25T07:43:59.437Z,1.40
2022-10-25T07:46:28.420Z,1.47
2022-10-25T07:48:56.032Z,2.67
2022-10-25T07:51:23.651Z,1.23
2022-10-25T07:53:51.309Z,1.40
2022-10-25T07:56:23.357Z,2.27
2022-10-25T07:58:51.507Z,3.70
2022-10-25T08:01:21.907Z,3.83
2022-10-25T08:03:51.408Z,3.77
2022-10-25T08:06:19.738Z,2.20
2022-10-25T08:08:47.552Z,1.87
2022-10-25T08:11:15.564Z,1.47
2022-10-25T08:13:43.379Z,2.00
2022-10-25T08:16:11.008Z,2.17
2022-10-25T08:18:38.637Z,2.97
2022-10-25T08:21:07.749Z,1.23
2022-10-25T08:23:35.356Z,2.50
2022-10-25T08:26:03.403Z,2.10
2022-10-25T08:28:31.629Z,1.20
2022-10-25T08:31:00.704Z,1.40
2022-10-25T08:33:28.770Z,1.20
2022-10-25T08:35:56.331Z,1.63
2022-10-25T08:38:25.210Z,3.60
2022-10-25T08:40:59.060Z,1.80
2022-10-25T08:43:46.753Z,1.80
2022-10-25T08:46:20.035Z,1.40
2022-10-25T08:48:54.349Z,2.47
2022-10-25T08:51:27.142Z,8.57
2022-10-25T08:53:59.427Z,1.77
2022-10-25T08:56:29.099Z,1.20
2022-10-25T08:59:00.930Z,3.87
2022-10-25T09:01:31.203Z,1.00
2022-10-25T09:04:00.383Z,2.00
2022-10-25T09:06:34.777Z,1.40
2022-10-25T09:09:20.498Z,1.37
2022-10-25T09:12:00.203Z,1.40
2022-10-25T09:14:39.172Z,2.50
2022-10-25T09:17:17.982Z,1.07
2022-10-25T09:20:01.463Z,1.60
2022-10-25T09:22:31.120Z,1.20
2022-10-25T09:25:03.433Z,2.03
2022-10-25T09:27:36.593Z,2.50
2022-10-25T09:30:08.448Z,2.20
2022-10-25T09:32:40.309Z,2.97
2022-10-25T09:35:15.210Z,2.00
2022-10-25T09:37:46.743Z,1.17
2022-10-25T09:40:19.240Z,3.40
2022-10-25T09:42:52.010Z,4.27
2022-10-25T09:45:25.749Z,0.80
2022-10-25T09:48:01.334Z,6.60
2022-10-25T09:50:33.141Z,4.43
2022-10-25T09:53:12.242Z,3.10
2022-10-25T09:55:47.366Z,1.60
2022-10-25T09:58:20.405Z,1.60
2022-10-25T10:00:48.599Z,1.83
2022-10-25T10:03:16.293Z,2.80
2022-10-25T10:05:49.786Z,1.50
2022-10-25T10:08:17.335Z,2.43
2022-10-25T10:10:48.643Z,1.30
2022-10-25T10:13:22.789Z,1.20
2022-10-25T10:15:55.142Z,1.80
2022-10-25T10:18:28.348Z,1.23
2022-10-25T10:21:05.718Z,1.93
2022-10-25T10:23:38.340Z,4.67
2022-10-25T10:26:14.474Z,1.57
2022-10-25T10:28:46.780Z,1.50
2022-10-25T10:31:14.677Z,1.87
2022-10-25T10:33:48.151Z,1.97
2022-10-25T10:36:24.673Z,3.53
2022-10-25T10:38:52.451Z,1.40
2022-10-25T10:41:29.318Z,1.83
2022-10-25T10:44:12.808Z,2.00
2022-10-25T10:46:46.409Z,2.27
2022-10-25T10:49:15.292Z,1.63
2022-10-25T10:51:45.697Z,1.90
2022-10-25T10:54:15.766Z,2.60
2022-10-25T10:56:44.716Z,1.30
2022-10-25T10:59:29.145Z,5.10
2022-10-25T11:01:57.421Z,1.67
2022-10-25T11:04:26.232Z,2.77
2022-10-25T11:06:54.017Z,1.10
2022-10-25T11:09:24.876Z,0.90
2022-10-25T11:12:08.975Z,1.80
2022-10-25T11:14:36.609Z,1.33
2022-10-25T11:17:09.632Z,2.93
2022-10-25T11:20:03.386Z,2.40
2022-10-25T11:23:00.057Z,0.90
2022-10-25T11:25:38.535Z,0.80
2022-10-25T11:28:21.922Z,0.50
2022-10-25T11:31:02.452Z,0.60
2022-10-25T11:33:43.191Z,0.90
2022-10-25T11:36:26.597Z,0.63
2022-10-25T11:39:04.727Z,1.30
2022-10-25T11:41:44.578Z,1.10
2022-10-25T11:44:35.972Z,0.87
2022-10-25T11:47:07.292Z,1.40
2022-10-25T11:49:46.989Z,1.00
2022-10-25T11:52:39.546Z,0.82
2022-10-25T11:55:21.297Z,0.80
2022-10-25T11:57:57.298Z,0.70
2022-10-25T12:00:36.233Z,0.93
2022-10-25T12:03:17.086Z,0.50
2022-10-25T12:05:52.411Z,0.75
2022-10-25T12:08:35.291Z,0.80
2022-10-25T12:11:08.057Z,0.60
2022-10-25T12:13:39.849Z,0.65
2022-10-25T12:16:12.682Z,1.40
2022-10-25T12:18:43.123Z,1.10
2022-10-25T12:21:16.358Z,0.77
2022-10-25T12:23:46.443Z,0.73
2022-10-25T12:26:21.735Z,0.93
2022-10-25T12:28:51.607Z,0.85
2022-10-25T12:31:24.436Z,0.82
2022-10-25T12:33:56.599Z,0.75
2022-10-25T12:36:32.995Z,0.80
2022-10-25T12:39:03.217Z,0.70
2022-10-25T12:41:35.559Z,0.55
2022-10-25T12:44:15.886Z,0.90
2022-10-25T12:47:06.175Z,0.70
2022-10-25T12:49:55.049Z,0.80
2022-10-25T12:52:32.348Z,1.45
2022-10-25T12:55:47.302Z,0.60
2022-10-25T12:58:31.099Z,0.80
2022-10-25T13:01:12.179Z,0.57
2022-10-25T13:03:58.900Z,0.70
2022-10-25T13:06:32.470Z,0.60
2022-10-25T13:09:07.726Z,0.75
2022-10-25T13:11:38.824Z,0.70
2022-10-25T13:14:17.459Z,0.70
2022-10-25T13:16:45.093Z,0.80
2022-10-25T13:20:00.732Z,1.10
2022-10-25T13:22:59.152Z,0.80
2022-10-25T13:26:22.502Z,0.90
2022-10-25T13:28:51.986Z,0.70
2022-10-25T13:31:59.328Z,0.55
2022-10-25T13:34:34.284Z,0.80
2022-10-25T13:37:05.901Z,0.75
2022-10-25T13:39:37.976Z,0.80
2022-10-25T13:42:21.481Z,0.68
2022-10-25T13:44:55.591Z,0.90
2022-10-25T13:47:37.117Z,0.70
2022-10-25T13:53:02.522Z,0.65
2022-10-25T13:55:35.868Z,0.65
2022-10-25T13:58:24.791Z,0.68
2022-10-25T14:00:54.630Z,0.90
2022-10-25T14:03:27.993Z,1.00
2022-10-25T14:06:26.482Z,0.60
2022-10-25T14:09:09.795Z,0.60
2022-10-25T14:11:42.362Z,0.65
2022-10-25T14:14:27.949Z,0.75
2022-10-25T14:17:04.917Z,1.00
2022-10-25T14:19:37.794Z,0.60
2022-10-25T14:22:14.419Z,0.88
2022-10-25T14:24:44.975Z,0.80
2022-10-25T14:27:29.084Z,0.60
2022-10-25T14:30:21.571Z,1.17
2022-10-25T14:32:51.606Z,0.68
2022-10-25T14:35:19.721Z,0.93
2022-10-25T14:37:47.445Z,0.90
2022-10-25T14:40:21.918Z,1.10
2022-10-25T14:42:50.131Z,0.70
2022-10-25T14:45:22.348Z,0.70
2022-10-25T14:47:50.326Z,0.95
2022-10-25T14:50:21.881Z,0.88
2022-10-25T14:52:51.515Z,0.70
2022-10-25T14:55:28.300Z,0.70
2022-10-25T14:57:57.205Z,1.00
2022-10-25T15:00:25.556Z,1.00
2022-10-25T15:02:57.183Z,0.90
2022-10-25T15:05:26.788Z,1.23
2022-10-25T15:07:57.054Z,1.10
2022-10-25T15:10:38.588Z,0.93
2022-10-25T15:13:13.451Z,0.70
2022-10-25T15:15:44.745Z,0.70
2022-10-25T15:18:29.511Z,1.20
2022-10-25T15:21:12.228Z,0.82
2022-10-25T15:23:41.318Z,1.00
2022-10-25T15:26:24.772Z,1.20
2022-10-25T15:28:56.733Z,1.20
2022-10-25T15:31:28.354Z,0.90
2022-10-25T15:33:58.053Z,1.30
2022-10-25T15:36:28.831Z,0.90
2022-10-25T15:39:16.973Z,0.90
2022-10-25T15:41:48.267Z,1.02
2022-10-25T15:44:15.834Z,1.17
2022-10-25T15:46:43.872Z,1.10
2022-10-25T15:49:13.577Z,0.95
2022-10-25T15:51:43.059Z,0.90
2022-10-25T15:54:15.402Z,0.90
2022-10-25T15:56:43.478Z,0.80
2022-10-25T15:59:13.607Z,0.98
2022-10-25T16:01:44.366Z,1.05
2022-10-25T16:04:14.695Z,1.10
2022-10-25T16:06:42.673Z,1.08
2022-10-25T16:09:10.891Z,1.08
2022-10-25T16:11:43.734Z,1.00
2022-10-25T16:14:22.326Z,0.95
2022-10-25T16:16:50.562Z,1.20
2022-10-25T16:19:19.399Z,1.70
2022-10-25T16:21:47.238Z,1.73
2022-10-25T16:24:15.352Z,1.95
2022-10-25T16:26:45.160Z,2.08
2022-10-25T16:29:20.442Z,1.73
2022-10-25T16:31:48.229Z,1.55
2022-10-25T16:34:17.241Z,1.30
2022-10-25T16:36:44.889Z,1.40
2022-10-25T16:39:12.862Z,1.17
2022-10-25T16:41:41.987Z,1.20
2022-10-25T16:44:12.807Z,1.30
2022-10-25T16:46:48.468Z,1.27
2022-10-25T16:49:16.309Z,1.50
2022-10-25T16:51:44.449Z,1.42
2022-10-25T16:54:15.676Z,1.30
2022-10-25T16:56:45.152Z,1.98
2022-10-25T16:59:12.687Z,1.63
2022-10-25T17:01:44.543Z,1.33
2022-10-25T17:04:17.934Z,2.30
2022-10-25T17:06:45.547Z,2.20
2022-10-25T17:09:13.112Z,1.80
2022-10-25T17:11:40.894Z,1.50
2022-10-25T17:14:09.578Z,1.50
2022-10-25T17:16:37.792Z,1.50
2022-10-25T17:19:06.739Z,1.52
2022-10-25T17:21:35.734Z,1.27
2022-10-25T17:26:39.527Z,1.50
2022-10-25T17:29:09.898Z,1.40
2022-10-25T17:31:39.290Z,1.77
2022-10-25T17:34:11.118Z,1.40
2022-10-25T17:36:38.767Z,1.48
2022-10-25T17:39:08.137Z,1.88
2022-10-25T17:41:35.951Z,1.40
2022-10-25T17:44:04.047Z,1.95
2022-10-25T17:46:32.699Z,1.52
2022-10-25T17:49:03.453Z,3.30
2022-10-25T17:51:34.132Z,8.00
2022-10-25T17:54:01.831Z,5.70
2022-10-25T17:58:58.863Z,4.68
2022-10-25T18:01:31.831Z,3.42
2022-10-25T18:03:59.494Z,2.92
2022-10-25T18:06:27.425Z,2.45
2022-10-25T18:08:57.824Z,3.15
2022-10-25T18:11:27.124Z,3.10
2022-10-25T18:13:56.292Z,3.33
2022-10-25T18:16:26.558Z,2.72
2022-10-25T18:18:54.588Z,2.83
2022-10-25T18:21:22.253Z,3.88
2022-10-25T18:23:50.043Z,2.70
2022-10-25T18:26:18.943Z,3.00
2022-10-25T18:28:46.631Z,3.38
2022-10-25T18:31:14.533Z,3.28
2022-10-25T18:33:43.739Z,3.20
2022-10-25T18:36:13.038Z,3.15
2022-10-25T18:38:40.595Z,3.20
2022-10-25T18:41:10.564Z,3.55
2022-10-25T18:43:39.773Z,3.58
2022-10-25T18:46:07.404Z,3.72
2022-10-25T18:48:35.021Z,3.20
2022-10-25T18:51:06.627Z,3.05
2022-10-25T18:53:35.377Z,3.28
2022-10-25T18:56:03.363Z,2.85
2022-10-25T18:58:31.253Z,4.67
2022-10-25T19:01:07.396Z,4.10
2022-10-25T19:03:35.447Z,4.95
2022-10-25T19:06:03.299Z,4.68
2022-10-25T19:08:30.956Z,4.13
2022-10-25T19:10:58.750Z,3.90
2022-10-25T19:13:28.101Z,4.15
2022-10-25T19:15:58.145Z,4.05
2022-10-25T19:18:28.253Z,4.20
2022-10-25T19:21:01.210Z,4.00
2022-10-25T19:23:28.831Z,3.75
2022-10-25T19:25:56.402Z,3.97
2022-10-25T19:28:24.686Z,3.38
2022-10-25T19:30:52.266Z,2.80
2022-10-25T19:33:20.559Z,3.15
2022-10-25T19:35:49.502Z,3.22
2022-10-25T19:38:17.092Z,3.28
2022-10-25T19:40:45.849Z,3.23
2022-10-25T19:43:14.781Z,3.07
2022-10-25T19:45:43.254Z,3.40
2022-10-25T19:48:10.822Z,3.00
2022-10-25T19:50:39.040Z,2.70
2022-10-25T19:53:08.005Z,3.10
2022-10-25T19:55:35.960Z,2.87
2022-10-25T19:58:07.748Z,3.63
2022-10-25T20:00:35.381Z,4.38
2022-10-25T20:03:03.108Z,3.93
2022-10-25T20:05:30.828Z,3.77
2022-10-25T20:07:58.468Z,3.67
2022-10-25T20:10:27.465Z,3.97
2022-10-25T20:12:55.679Z,3.17
2022-10-25T20:15:23.295Z,3.45
2022-10-25T20:17:58.116Z,3.10
2022-10-25T20:20:25.746Z,2.70
2022-10-25T20:22:53.345Z,2.60
2022-10-25T20:25:20.954Z,2.87
2022-10-25T20:27:50.227Z,3.10
2022-10-25T20:30:18.307Z,2.90
2022-10-25T20:32:45.931Z,2.85
2022-10-25T20:35:13.600Z,3.27
2022-10-25T20:37:41.176Z,2.40
2022-10-25T20:40:09.854Z,3.20
2022-10-25T20:42:37.396Z,3.33
2022-10-25T20:45:07.220Z,3.23
2022-10-25T20:47:34.870Z,3.40
2022-10-25T20:50:02.535Z,3.43
2022-10-25T20:52:30.186Z,3.00
2022-10-25T20:54:57.835Z,3.23
2022-10-25T20:57:25.445Z,3.00
2022-10-25T20:59:52.998Z,3.00
2022-10-25T21:02:21.949Z,2.30
2022-10-25T21:04:53.821Z,2.20
2022-10-25T21:07:21.930Z,2.20
2022-10-25T21:09:49.746Z,2.20
2022-10-25T21:12:17.550Z,2.20
2022-10-25T21:14:45.182Z,2.30
2022-10-25T21:17:12.867Z,2.20
2022-10-25T21:19:41.811Z,2.30
2022-10-25T21:22:09.404Z,2.40
2022-10-25T21:24:37.070Z,2.10
2022-10-25T21:27:04.814Z,2.40
2022-10-25T21:29:32.469Z,2.63
2022-10-25T21:32:01.523Z,2.20
2022-10-25T21:34:29.179Z,2.40
2022-10-25T21:36:58.160Z,2.30
2022-10-25T21:39:25.752Z,2.50
2022-10-25T21:41:53.917Z,2.37
2022-10-25T21:44:22.258Z,2.67
2022-10-25T21:46:49.960Z,2.00
2022-10-25T21:49:17.557Z,2.27
2022-10-25T21:51:45.171Z,1.87
2022-10-25T21:54:14.172Z,1.73
2022-10-25T21:56:41.809Z,1.53
2022-10-25T21:59:09.423Z,2.33
2022-10-25T22:01:37.164Z,1.90
2022-10-25T22:04:05.161Z,1.90
2022-10-25T22:06:32.803Z,2.13
2022-10-25T22:09:00.507Z,1.87
2022-10-25T22:11:32.719Z,1.63
2022-10-25T22:14:02.307Z,1.80
2022-10-25T22:16:31.122Z,2.10
2022-10-25T22:19:00.391Z,1.77
2022-10-25T22:21:29.906Z,1.83
2022-10-25T22:23:57.564Z,1.90
2022-10-25T22:26:25.593Z,1.70
2022-10-25T22:28:55.336Z,2.27
2022-10-25T22:31:24.026Z,1.90
2022-10-25T22:33:54.795Z,1.50
2022-10-25T22:36:24.469Z,1.90
2022-10-25T22:38:52.168Z,1.57
2022-10-25T22:41:23.949Z,1.60
2022-10-25T22:43:52.052Z,1.90
2022-10-25T22:46:24.891Z,1.23
2022-10-25T22:48:54.004Z,1.70
2022-10-25T22:51:22.301Z,1.93
2022-10-25T22:53:50.615Z,2.17
2022-10-25T22:56:20.324Z,1.97
2022-10-25T22:58:50.097Z,2.00
2022-10-25T23:01:19.988Z,1.60
2022-10-25T23:03:52.009Z,1.63
2022-10-25T23:06:25.081Z,1.80
2022-10-25T23:08:53.953Z,1.80
2022-10-25T23:11:23.869Z,1.80
2022-10-25T23:13:51.545Z,1.80
2022-10-25T23:16:19.238Z,1.60
2022-10-25T23:18:47.402Z,1.73
2022-10-25T23:21:18.832Z,1.50
2022-10-25T23:23:47.492Z,1.47
2022-10-25T23:26:20.161Z,1.60
2022-10-25T23:28:48.373Z,1.63
2022-10-25T23:31:17.357Z,1.70
2022-10-25T23:33:45.251Z,1.50
2022-10-25T23:36:14.217Z,1.90
2022-10-25T23:38:44.196Z,1.63
2022-10-25T23:41:12.451Z,1.30
2022-10-25T23:43:40.766Z,1.63
2022-10-25T23:46:09.316Z,1.60
2022-10-25T23:48:37.432Z,1.70
2022-10-25T23:51:06.752Z,1.50
2022-10-25T23:53:35.077Z,1.70
2022-10-25T23:56:06.228Z,1.70
2022-10-25T23:58:34.059Z,2.10
